Time;durP1;ratioP1;P1;durP2;ratioP2;P2;SDS_P1;SDS_P2;PMS_P1;PMS_P2;Temp;Humidity;BMP_temperature;BMP_pressure;BME280_temperature;BME280_humidity;BME280_pressure;Samples;Min_cycle;Max_cycle;Signal;HPM_P1;HPM_P2
2021/08/12 00:00:04;;;;;;;9.90;9.20;;;;;;;;;;4989809;28;24506;-49
2021/08/12 00:02:29;;;;;;;9.20;8.60;;;;;;;;;;4990018;28;24421;-49
2021/08/12 00:04:54;;;;;;;9.88;9.18;;;;;;;;;;4989995;28;24873;-49
2021/08/12 00:07:21;;;;;;;9.75;9.05;;;;;;;;;;4990700;28;25025;-49
2021/08/12 00:09:46;;;;;;;9.55;8.90;;;;;;;;;;4990326;28;24524;-50
2021/08/12 00:12:12;;;;;;;9.10;8.50;;;;;;;;;;4989609;28;24536;-49
2021/08/12 00:14:37;;;;;;;9.73;9.03;;;;;;;;;;4990318;28;24978;-50
2021/08/12 00:17:02;;;;;;;11.30;10.50;;;;;;;;;;4989933;28;24982;-49
2021/08/12 00:19:27;;;;;;;9.90;9.20;;;;;;;;;;4989953;28;24417;-49
2021/08/12 00:21:52;;;;;;;8.90;8.30;;;;;;;;;;4989156;28;24563;-49
2021/08/12 00:24:21;;;;;;;9.10;8.50;;;;;;;;;;4989496;28;24432;-49
2021/08/12 00:26:48;;;;;;;9.43;8.73;;;;;;;;;;4989192;28;24409;-49
2021/08/12 00:29:13;;;;;;;9.30;8.50;;;;;;;;;;4989790;28;25048;-49
2021/08/12 00:31:38;;;;;;;8.47;7.87;;;;;;;;;;4990394;28;24413;-49
2021/08/12 00:34:03;;;;;;;8.98;8.27;;;;;;;;;;4988880;28;24441;-49
2021/08/12 00:36:28;;;;;;;9.70;8.90;;;;;;;;;;4987696;28;24470;-50
2021/08/12 00:38:53;;;;;;;9.03;8.43;;;;;;;;;;4987823;28;24807;-50
2021/08/12 00:41:19;;;;;;;8.33;7.73;;;;;;;;;;4989711;28;24493;-49
2021/08/12 00:43:44;;;;;;;9.00;8.30;;;;;;;;;;4989263;28;25018;-49
2021/08/12 00:46:09;;;;;;;8.38;7.78;;;;;;;;;;4988729;28;24408;-49
2021/08/12 00:48:35;;;;;;;9.68;8.88;;;;;;;;;;4990060;28;24768;-49
2021/08/12 00:51:00;;;;;;;8.30;7.65;;;;;;;;;;4988926;28;24459;-49
2021/08/12 00:53:25;;;;;;;9.80;9.20;;;;;;;;;;4985380;28;24507;-49
2021/08/12 00:55:50;;;;;;;9.90;9.20;;;;;;;;;;4988802;28;25000;-50
2021/08/12 00:58:16;;;;;;;8.53;7.93;;;;;;;;;;4988391;28;24548;-48
2021/08/12 01:00:49;;;;;;;9.10;8.50;;;;;;;;;;4989706;28;24449;-49
2021/08/12 01:03:15;;;;;;;9.50;8.80;;;;;;;;;;4989843;28;24511;-48
2021/08/12 01:05:42;;;;;;;9.15;8.55;;;;;;;;;;4988980;28;24531;-50
2021/08/12 01:08:08;;;;;;;9.57;8.88;;;;;;;;;;4988647;28;24421;-49
2021/08/12 01:10:43;;;;;;;9.93;9.23;;;;;;;;;;4988536;28;24491;-50
2021/08/12 01:13:08;;;;;;;10.73;10.02;;;;;;;;;;4988398;28;24880;-51
2021/08/12 01:15:35;;;;;;;9.95;9.35;;;;;;;;;;4988574;28;24897;-50
2021/08/12 01:18:03;;;;;;;11.10;10.20;;;;;;;;;;4988876;28;24428;-50
2021/08/12 01:20:34;;;;;;;9.70;9.00;;;;;;;;;;4988826;28;24416;-49
2021/08/12 01:23:00;;;;;;;9.75;9.05;;;;;;;;;;4988982;28;24409;-50
2021/08/12 01:25:29;;;;;;;10.13;9.52;;;;;;;;;;4988729;28;24476;-50
2021/08/12 01:27:54;;;;;;;9.70;9.05;;;;;;;;;;4988546;28;24463;-50
2021/08/12 01:30:30;;;;;;;11.00;10.20;;;;;;;;;;4986366;28;24441;-50
2021/08/12 01:33:18;;;;;;;10.40;9.70;;;;;;;;;;4987994;28;24412;-48
2021/08/12 01:35:45;;;;;;;11.30;10.50;;;;;;;;;;4988777;28;24425;-49
2021/08/12 01:38:12;;;;;;;10.95;10.15;;;;;;;;;;4988441;28;24464;-49
2021/08/12 01:40:38;;;;;;;10.20;9.50;;;;;;;;;;4989210;28;24509;-49
2021/08/12 01:43:05;;;;;;;11.43;10.63;;;;;;;;;;4988197;28;24468;-48
2021/08/12 01:45:31;;;;;;;12.20;11.30;;;;;;;;;;4988400;28;24419;-49
2021/08/12 01:47:56;;;;;;;10.97;10.20;;;;;;;;;;4988207;28;24417;-49
2021/08/12 01:50:21;;;;;;;9.40;8.80;;;;;;;;;;4982588;28;24967;-48
2021/08/12 01:52:48;;;;;;;9.73;9.13;;;;;;;;;;4988344;28;24754;-49
2021/08/12 01:55:14;;;;;;;9.57;8.88;;;;;;;;;;4988156;28;24519;-49
2021/08/12 01:57:40;;;;;;;10.40;9.60;;;;;;;;;;4987815;28;24536;-48
2021/08/12 02:00:06;;;;;;;9.50;8.88;;;;;;;;;;4987946;28;24413;-48
2021/08/12 02:02:33;;;;;;;9.88;9.18;;;;;;;;;;4987965;28;24420;-48
2021/08/12 02:04:59;;;;;;;10.35;9.55;;;;;;;;;;4988170;28;24413;-49
2021/08/12 02:07:24;;;;;;;10.90;10.10;;;;;;;;;;4988282;28;24479;-49
2021/08/12 02:09:49;;;;;;;10.10;9.50;;;;;;;;;;4987784;28;24416;-49
2021/08/12 02:12:14;;;;;;;11.02;10.23;;;;;;;;;;4987553;28;24498;-49
2021/08/12 02:14:40;;;;;;;11.30;10.33;;;;;;;;;;4988393;28;25057;-48
2021/08/12 02:17:05;;;;;;;10.73;9.93;;;;;;;;;;4987958;28;24408;-48
2021/08/12 02:19:31;;;;;;;10.20;9.40;;;;;;;;;;4988264;28;24413;-48
2021/08/12 02:22:06;;;;;;;11.35;10.55;;;;;;;;;;4987629;28;24463;-49
2021/08/12 02:24:34;;;;;;;10.00;9.30;;;;;;;;;;4987932;28;24441;-49
2021/08/12 02:27:00;;;;;;;10.20;9.50;;;;;;;;;;4987635;28;24428;-49
2021/08/12 02:29:27;;;;;;;10.60;9.90;;;;;;;;;;4987884;28;25387;-49
2021/08/12 02:31:53;;;;;;;11.20;10.40;;;;;;;;;;4987820;28;24432;-49
2021/08/12 02:34:18;;;;;;;11.00;10.30;;;;;;;;;;4987526;28;24453;-49
2021/08/12 02:36:45;;;;;;;10.60;9.80;;;;;;;;;;4986732;28;24420;-49
2021/08/12 02:39:11;;;;;;;10.77;10.07;;;;;;;;;;4987107;28;24432;-49
2021/08/12 02:41:36;;;;;;;11.88;11.00;;;;;;;;;;4988041;28;24843;-49
2021/08/12 02:44:02;;;;;;;11.10;10.30;;;;;;;;;;4987572;28;25015;-48
2021/08/12 02:46:28;;;;;;;11.37;10.57;;;;;;;;;;4986963;28;24428;-49
2021/08/12 02:48:55;;;;;;;11.00;10.10;;;;;;;;;;4988132;28;25033;-49
2021/08/12 02:51:22;;;;;;;10.70;9.90;;;;;;;;;;4987422;28;24499;-48
2021/08/12 02:53:47;;;;;;;12.00;11.20;;;;;;;;;;4987357;28;24459;-49
2021/08/12 02:56:13;;;;;;;11.67;10.77;;;;;;;;;;4987297;28;24504;-49
2021/08/12 02:58:41;;;;;;;11.10;10.40;;;;;;;;;;4987128;28;24416;-48
2021/08/12 03:01:07;;;;;;;11.30;10.50;;;;;;;;;;4987065;28;24432;-48
2021/08/12 03:03:33;;;;;;;12.38;11.48;;;;;;;;;;4987403;28;24421;-49
2021/08/12 03:05:59;;;;;;;11.70;10.90;;;;;;;;;;4987319;28;24800;-49
2021/08/12 03:08:25;;;;;;;10.80;10.10;;;;;;;;;;4987364;28;24784;-48
2021/08/12 03:10:51;;;;;;;11.45;10.65;;;;;;;;;;4987698;28;25148;-48
2021/08/12 03:13:16;;;;;;;11.45;10.65;;;;;;;;;;4984308;28;24494;-49
2021/08/12 03:15:42;;;;;;;10.82;10.13;;;;;;;;;;4984981;28;24946;-49
2021/08/12 03:18:08;;;;;;;11.73;10.93;;;;;;;;;;4990632;28;25058;-48
2021/08/12 03:20:33;;;;;;;11.70;11.00;;;;;;;;;;4990685;28;24435;-49
2021/08/12 03:22:58;;;;;;;10.40;9.70;;;;;;;;;;4990743;28;25002;-48
2021/08/12 03:25:24;;;;;;;10.60;9.80;;;;;;;;;;4989865;28;25065;-48
2021/08/12 03:27:49;;;;;;;10.80;10.10;;;;;;;;;;4990481;28;24864;-49
2021/08/12 03:30:14;;;;;;;11.02;10.23;;;;;;;;;;4990216;28;24960;-49
2021/08/12 03:32:39;;;;;;;10.60;9.90;;;;;;;;;;4991332;28;24449;-50
2021/08/12 03:35:05;;;;;;;10.63;9.93;;;;;;;;;;4990059;28;24479;-49
2021/08/12 03:37:30;;;;;;;12.60;11.80;;;;;;;;;;4990306;28;24508;-50
2021/08/12 03:39:56;;;;;;;12.20;11.30;;;;;;;;;;4990172;28;24442;-50
2021/08/12 03:42:21;;;;;;;12.30;11.40;;;;;;;;;;4990673;28;25057;-49
2021/08/12 03:44:46;;;;;;;12.38;11.57;;;;;;;;;;4990181;28;24428;-49
2021/08/12 03:47:11;;;;;;;11.93;11.13;;;;;;;;;;4990171;28;24997;-50
2021/08/12 03:49:36;;;;;;;12.03;11.23;;;;;;;;;;4990228;28;24424;-50
2021/08/12 03:52:02;;;;;;;11.90;11.10;;;;;;;;;;4990017;28;24487;-50
2021/08/12 03:54:27;;;;;;;12.65;11.80;;;;;;;;;;4990134;28;24775;-51
2021/08/12 03:56:52;;;;;;;11.90;11.10;;;;;;;;;;4989297;28;24955;-50
2021/08/12 03:59:17;;;;;;;11.47;10.77;;;;;;;;;;4990043;28;24417;-50
2021/08/12 04:01:43;;;;;;;11.37;10.57;;;;;;;;;;4990472;28;24970;-50
2021/08/12 04:04:08;;;;;;;12.23;11.43;;;;;;;;;;4989647;28;24425;-50
2021/08/12 04:06:33;;;;;;;12.77;11.88;;;;;;;;;;4989975;28;24417;-50
2021/08/12 04:08:58;;;;;;;12.73;11.82;;;;;;;;;;4989392;28;24516;-50
2021/08/12 04:11:23;;;;;;;11.90;11.10;;;;;;;;;;4990312;28;24413;-50
2021/08/12 04:13:48;;;;;;;12.27;11.40;;;;;;;;;;4972523;28;24437;-51
2021/08/12 04:16:14;;;;;;;12.10;11.30;;;;;;;;;;4989846;28;24421;-48
2021/08/12 04:18:39;;;;;;;11.63;10.83;;;;;;;;;;4989568;28;25138;-51
2021/08/12 04:21:05;;;;;;;12.35;11.55;;;;;;;;;;4989803;28;24955;-48
2021/08/12 04:23:30;;;;;;;12.05;11.25;;;;;;;;;;4989178;28;24416;-50
2021/08/12 04:25:55;;;;;;;13.60;12.70;;;;;;;;;;4989143;28;24409;-50
2021/08/12 04:28:21;;;;;;;11.57;10.87;;;;;;;;;;4987661;28;24427;-49
2021/08/12 04:30:48;;;;;;;11.00;10.30;;;;;;;;;;4989219;28;24415;-50
2021/08/12 04:33:13;;;;;;;11.77;10.90;;;;;;;;;;4989430;28;24417;-49
2021/08/12 04:35:38;;;;;;;10.20;9.50;;;;;;;;;;4988355;28;24602;-49
2021/08/12 04:38:04;;;;;;;10.60;9.90;;;;;;;;;;4989887;28;24436;-51
2021/08/12 04:40:29;;;;;;;9.73;9.10;;;;;;;;;;4988909;28;24784;-51
2021/08/12 04:42:54;;;;;;;9.50;8.80;;;;;;;;;;4985101;28;24424;-50
2021/08/12 04:45:20;;;;;;;9.93;9.13;;;;;;;;;;4989407;28;24424;-51
2021/08/12 04:47:45;;;;;;;9.73;9.05;;;;;;;;;;4989331;28;25036;-50
2021/08/12 04:50:11;;;;;;;8.57;7.97;;;;;;;;;;4989132;28;24872;-51
2021/08/12 04:52:36;;;;;;;8.48;7.88;;;;;;;;;;4988800;28;24432;-50
2021/08/12 04:55:01;;;;;;;7.50;7.10;;;;;;;;;;4989104;28;24452;-51
2021/08/12 04:57:26;;;;;;;8.80;8.20;;;;;;;;;;4988349;28;24475;-51
2021/08/12 04:59:52;;;;;;;9.55;8.95;;;;;;;;;;4988627;28;24422;-51
2021/08/12 05:02:17;;;;;;;9.10;8.50;;;;;;;;;;4988258;28;24776;-50
2021/08/12 05:04:42;;;;;;;7.40;6.90;;;;;;;;;;4988359;28;24429;-51
2021/08/12 05:07:07;;;;;;;8.57;8.07;;;;;;;;;;4988333;28;24445;-51
2021/08/12 05:09:33;;;;;;;8.87;8.27;;;;;;;;;;4987120;28;24472;-49
2021/08/12 05:11:59;;;;;;;10.35;9.65;;;;;;;;;;4988925;28;24431;-50
2021/08/12 05:14:24;;;;;;;8.43;7.93;;;;;;;;;;4987181;28;25046;-52
2021/08/12 05:16:49;;;;;;;9.90;9.20;;;;;;;;;;4989082;28;24484;-51
2021/08/12 05:19:14;;;;;;;9.00;8.45;;;;;;;;;;4988587;28;24414;-53
2021/08/12 05:21:40;;;;;;;8.40;7.80;;;;;;;;;;4988713;28;24508;-52
2021/08/12 05:24:05;;;;;;;8.30;7.70;;;;;;;;;;4986236;28;24417;-51
2021/08/12 05:26:30;;;;;;;9.20;8.60;;;;;;;;;;4986931;28;24460;-51
2021/08/12 05:28:55;;;;;;;8.23;7.53;;;;;;;;;;4989205;28;24697;-51
2021/08/12 05:31:20;;;;;;;7.60;7.10;;;;;;;;;;4989324;28;24448;-51
2021/08/12 05:33:45;;;;;;;8.53;8.00;;;;;;;;;;4988370;28;25030;-52
2021/08/12 05:36:10;;;;;;;7.60;7.10;;;;;;;;;;4987746;28;24500;-51
2021/08/12 05:38:36;;;;;;;8.10;7.57;;;;;;;;;;4986871;28;24425;-52
2021/08/12 05:41:01;;;;;;;7.13;6.73;;;;;;;;;;4988070;28;24416;-51
2021/08/12 05:43:27;;;;;;;7.60;7.00;;;;;;;;;;4988132;28;24788;-51
2021/08/12 05:45:53;;;;;;;8.10;7.40;;;;;;;;;;4967004;28;24428;-50
2021/08/12 05:48:19;;;;;;;7.35;6.85;;;;;;;;;;4984890;28;24476;-50
2021/08/12 05:50:44;;;;;;;7.37;6.77;;;;;;;;;;4984671;28;24905;-51
2021/08/12 05:53:11;;;;;;;7.50;7.00;;;;;;;;;;4983682;28;25451;-51
2021/08/12 05:55:36;;;;;;;7.75;7.20;;;;;;;;;;4985105;28;24891;-52
2021/08/12 05:58:01;;;;;;;8.10;7.50;;;;;;;;;;4984249;28;24456;-52
2021/08/12 06:00:27;;;;;;;7.67;7.17;;;;;;;;;;4984310;28;24460;-51
2021/08/12 06:02:52;;;;;;;8.80;8.20;;;;;;;;;;4984969;28;24452;-51
2021/08/12 06:05:17;;;;;;;7.70;7.20;;;;;;;;;;4985474;28;24428;-52
2021/08/12 06:07:42;;;;;;;7.80;7.20;;;;;;;;;;4984266;28;24409;-51
2021/08/12 06:10:07;;;;;;;8.10;7.40;;;;;;;;;;4983729;28;24860;-52
2021/08/12 06:12:32;;;;;;;7.17;6.67;;;;;;;;;;4979435;28;24447;-51
2021/08/12 06:14:58;;;;;;;8.40;7.90;;;;;;;;;;4984584;28;24491;-53
2021/08/12 06:17:23;;;;;;;7.87;7.30;;;;;;;;;;4984313;28;24421;-52
2021/08/12 06:19:48;;;;;;;7.30;6.80;;;;;;;;;;4983453;28;24471;-52
2021/08/12 06:22:13;;;;;;;7.80;7.20;;;;;;;;;;4985001;28;24417;-52
2021/08/12 06:24:38;;;;;;;7.97;7.47;;;;;;;;;;4984839;28;24944;-51
2021/08/12 06:27:03;;;;;;;7.57;7.00;;;;;;;;;;4983951;28;24487;-51
2021/08/12 06:29:29;;;;;;;7.73;7.13;;;;;;;;;;4981552;28;24453;-50
2021/08/12 06:31:54;;;;;;;8.20;7.70;;;;;;;;;;4983586;28;24526;-50
2021/08/12 06:34:19;;;;;;;8.50;7.90;;;;;;;;;;4984136;28;25313;-50
2021/08/12 06:36:44;;;;;;;8.65;7.95;;;;;;;;;;4980102;28;24508;-50
2021/08/12 06:39:10;;;;;;;8.05;7.55;;;;;;;;;;4983159;28;24514;-50
2021/08/12 06:41:43;;;;;;;8.27;7.68;;;;;;;;;;4983955;28;24982;-51
2021/08/12 06:44:08;;;;;;;8.33;7.73;;;;;;;;;;4985745;28;24439;-51
2021/08/12 06:46:34;;;;;;;8.60;7.90;;;;;;;;;;4982951;28;24425;-52
2021/08/12 06:48:59;;;;;;;8.07;7.57;;;;;;;;;;4985019;28;24424;-51
2021/08/12 06:51:24;;;;;;;8.00;7.30;;;;;;;;;;4989397;28;24445;-51
2021/08/12 06:53:49;;;;;;;8.57;7.97;;;;;;;;;;4984407;28;24828;-51
2021/08/12 06:56:14;;;;;;;8.70;8.00;;;;;;;;;;4988878;28;24536;-51
2021/08/12 06:58:40;;;;;;;7.90;7.40;;;;;;;;;;4985127;28;25084;-51
2021/08/12 07:01:05;;;;;;;7.80;7.20;;;;;;;;;;4987432;28;24508;-52
2021/08/12 07:03:30;;;;;;;8.18;7.57;;;;;;;;;;4988798;28;24460;-51
2021/08/12 07:05:55;;;;;;;8.60;8.00;;;;;;;;;;4989376;28;24420;-51
2021/08/12 07:08:20;;;;;;;8.10;7.40;;;;;;;;;;4989286;28;25037;-52
2021/08/12 07:10:46;;;;;;;8.32;7.63;;;;;;;;;;4989667;28;24420;-50
2021/08/12 07:13:11;;;;;;;7.88;7.38;;;;;;;;;;4990142;28;24479;-52
2021/08/12 07:15:36;;;;;;;8.60;7.90;;;;;;;;;;4990587;28;24507;-52
2021/08/12 07:18:01;;;;;;;8.20;7.70;;;;;;;;;;4989511;28;24939;-52
2021/08/12 07:20:27;;;;;;;8.00;7.40;;;;;;;;;;4990375;28;24412;-53
2021/08/12 07:22:52;;;;;;;6.82;6.43;;;;;;;;;;4990306;28;24962;-52
2021/08/12 07:25:19;;;;;;;7.00;6.60;;;;;;;;;;4989921;28;24420;-52
2021/08/12 07:27:48;;;;;;;7.50;6.90;;;;;;;;;;4989954;28;24461;-51
2021/08/12 07:30:14;;;;;;;6.75;6.35;;;;;;;;;;4989331;28;24479;-50
2021/08/12 07:32:39;;;;;;;7.40;6.80;;;;;;;;;;4989140;28;25050;-52
2021/08/12 07:35:04;;;;;;;6.70;6.30;;;;;;;;;;4989381;28;24448;-51
2021/08/12 07:37:29;;;;;;;6.80;6.40;;;;;;;;;;4989584;28;24508;-52
2021/08/12 07:39:54;;;;;;;5.90;5.50;;;;;;;;;;4989221;28;24523;-52
2021/08/12 07:42:20;;;;;;;6.20;5.80;;;;;;;;;;4989203;28;24489;-51
2021/08/12 07:44:48;;;;;;;6.40;6.00;;;;;;;;;;4989659;28;24417;-51
2021/08/12 07:47:13;;;;;;;6.60;6.10;;;;;;;;;;4989661;28;24417;-51
2021/08/12 07:49:38;;;;;;;6.50;6.10;;;;;;;;;;4989290;28;24831;-52
2021/08/12 07:52:04;;;;;;;6.90;6.50;;;;;;;;;;4989797;28;24520;-51
2021/08/12 07:54:29;;;;;;;7.13;6.63;;;;;;;;;;4988964;28;24500;-52
2021/08/12 07:56:55;;;;;;;6.40;5.90;;;;;;;;;;4989623;28;24496;-52
2021/08/12 07:59:20;;;;;;;6.20;5.80;;;;;;;;;;4989906;28;24459;-51
2021/08/12 08:01:45;;;;;;;7.20;6.70;;;;;;;;;;4991074;28;24417;-51
2021/08/12 08:04:10;;;;;;;7.47;6.97;;;;;;;;;;4989623;28;24467;-51
2021/08/12 08:06:35;;;;;;;7.05;6.55;;;;;;;;;;4989952;28;24496;-52
2021/08/12 08:09:01;;;;;;;6.90;6.40;;;;;;;;;;4989314;28;24424;-54
2021/08/12 08:11:26;;;;;;;7.40;6.90;;;;;;;;;;4989296;28;24448;-53
2021/08/12 08:13:51;;;;;;;6.25;5.75;;;;;;;;;;4989029;28;25146;-51
2021/08/12 08:16:19;;;;;;;7.05;6.55;;;;;;;;;;4990285;28;24416;-52
2021/08/12 08:18:45;;;;;;;6.40;6.00;;;;;;;;;;4989607;28;24409;-51
2021/08/12 08:21:10;;;;;;;6.60;6.10;;;;;;;;;;4989571;28;24428;-50
2021/08/12 08:23:35;;;;;;;7.50;6.90;;;;;;;;;;4989792;28;24475;-51
2021/08/12 08:26:00;;;;;;;6.40;5.90;;;;;;;;;;4989629;28;24963;-51
2021/08/12 08:28:25;;;;;;;6.20;5.80;;;;;;;;;;4989429;28;24412;-52
2021/08/12 08:30:50;;;;;;;6.40;5.90;;;;;;;;;;4989312;28;24527;-52
2021/08/12 08:33:15;;;;;;;6.60;6.10;;;;;;;;;;4989297;28;24409;-52
2021/08/12 08:35:41;;;;;;;7.40;6.80;;;;;;;;;;4988834;28;24662;-52
2021/08/12 08:38:06;;;;;;;6.10;5.70;;;;;;;;;;4989108;28;24417;-52
2021/08/12 08:40:32;;;;;;;5.37;4.97;;;;;;;;;;4988839;28;24468;-53
2021/08/12 08:42:58;;;;;;;5.63;5.22;;;;;;;;;;4988972;28;25262;-52
2021/08/12 08:45:25;;;;;;;5.30;4.90;;;;;;;;;;4989402;28;24508;-52
2021/08/12 08:47:51;;;;;;;5.13;4.78;;;;;;;;;;4985453;28;24420;-51
2021/08/12 08:50:17;;;;;;;5.55;5.15;;;;;;;;;;4988420;28;24916;-51
2021/08/12 08:52:42;;;;;;;4.82;4.53;;;;;;;;;;4989005;28;24436;-52
2021/08/12 08:55:07;;;;;;;6.10;5.60;;;;;;;;;;4988640;28;25181;-52
2021/08/12 08:57:33;;;;;;;5.40;5.00;;;;;;;;;;4988278;28;24420;-51
2021/08/12 08:59:58;;;;;;;5.17;4.77;;;;;;;;;;4988904;28;24488;-53
2021/08/12 09:02:24;;;;;;;5.43;5.03;;;;;;;;;;4988997;28;24690;-52
2021/08/12 09:04:49;;;;;;;5.30;5.00;;;;;;;;;;4989031;28;24432;-52
2021/08/12 09:07:14;;;;;;;6.38;5.20;;;;;;;;;;4988437;28;24500;-51
2021/08/12 09:09:39;;;;;;;7.00;6.30;;;;;;;;;;4988484;28;24776;-51
2021/08/12 09:12:05;;;;;;;7.00;6.30;;;;;;;;;;4988325;28;24421;-52
2021/08/12 09:14:31;;;;;;;5.60;5.20;;;;;;;;;;4988275;28;24437;-51
2021/08/12 09:16:56;;;;;;;4.93;4.63;;;;;;;;;;4988572;28;24978;-53
2021/08/12 09:19:25;;;;;;;5.68;5.28;;;;;;;;;;4988157;28;24981;-52
2021/08/12 09:21:51;;;;;;;5.07;4.60;;;;;;;;;;4988623;28;24420;-53
2021/08/12 09:24:17;;;;;;;4.80;4.40;;;;;;;;;;4988195;28;24890;-52
2021/08/12 09:26:42;;;;;;;4.20;3.90;;;;;;;;;;4988027;28;25042;-53
2021/08/12 09:29:08;;;;;;;3.92;3.63;;;;;;;;;;4987946;28;24828;-51
2021/08/12 09:31:34;;;;;;;4.20;3.90;;;;;;;;;;4988518;28;25010;-51
2021/08/12 09:34:10;;;;;;;4.50;4.10;;;;;;;;;;4988032;28;24524;-52
2021/08/12 09:36:39;;;;;;;3.80;3.60;;;;;;;;;;4974848;28;24417;-52
2021/08/12 09:39:09;;;;;;;3.90;3.60;;;;;;;;;;4987908;28;24546;-52
2021/08/12 09:41:40;;;;;;;3.90;3.60;;;;;;;;;;4987900;28;25096;-51
2021/08/12 09:44:06;;;;;;;4.50;4.10;;;;;;;;;;4988347;28;24434;-52
2021/08/12 09:46:34;;;;;;;4.40;4.10;;;;;;;;;;4988259;28;24949;-53
2021/08/12 09:49:00;;;;;;;5.07;4.68;;;;;;;;;;4987461;28;24413;-53
2021/08/12 09:51:28;;;;;;;4.55;4.15;;;;;;;;;;4987079;28;24432;-53
2021/08/12 09:54:05;;;;;;;4.97;4.57;;;;;;;;;;4987530;28;24445;-53
2021/08/12 09:56:30;;;;;;;4.00;3.70;;;;;;;;;;4979874;28;24409;-52
2021/08/12 09:59:08;;;;;;;4.30;4.00;;;;;;;;;;4987300;28;24621;-52
2021/08/12 10:01:33;;;;;;;4.50;4.20;;;;;;;;;;4987642;28;24409;-53
2021/08/12 10:04:15;;;;;;;4.80;4.50;;;;;;;;;;4987209;28;24513;-53
2021/08/12 10:06:41;;;;;;;4.28;3.97;;;;;;;;;;4988085;28;24499;-53
2021/08/12 10:09:16;;;;;;;4.00;3.70;;;;;;;;;;4987640;28;25022;-53
2021/08/12 10:11:41;;;;;;;4.35;4.05;;;;;;;;;;4987856;28;24552;-53
2021/08/12 10:14:07;;;;;;;4.80;4.40;;;;;;;;;;4986435;28;25064;-53
2021/08/12 10:16:34;;;;;;;4.67;4.37;;;;;;;;;;4987001;28;24416;-53
2021/08/12 10:18:59;;;;;;;4.40;4.10;;;;;;;;;;4987031;28;24405;-52
2021/08/12 10:21:25;;;;;;;4.50;4.20;;;;;;;;;;4987787;28;24516;-53
2021/08/12 10:23:53;;;;;;;4.10;3.80;;;;;;;;;;4987333;28;24503;-52
2021/08/12 10:26:19;;;;;;;5.53;4.25;;;;;;;;;;4987577;28;24521;-52
2021/08/12 10:28:46;;;;;;;5.20;4.80;;;;;;;;;;4987454;28;24447;-53
2021/08/12 10:31:13;;;;;;;4.20;3.90;;;;;;;;;;4986960;28;24476;-52
2021/08/12 10:33:39;;;;;;;4.75;4.43;;;;;;;;;;4987510;28;24435;-53
2021/08/12 10:36:04;;;;;;;4.30;4.00;;;;;;;;;;4987060;28;24475;-51
2021/08/12 10:38:29;;;;;;;4.80;4.50;;;;;;;;;;4987565;28;24417;-51
2021/08/12 10:40:55;;;;;;;4.93;4.53;;;;;;;;;;4987042;28;24413;-52
2021/08/12 10:43:28;;;;;;;4.70;4.30;;;;;;;;;;4987619;28;24761;-52
2021/08/12 10:45:55;;;;;;;4.35;4.05;;;;;;;;;;4987036;28;24452;-52
2021/08/12 10:48:20;;;;;;;4.20;3.90;;;;;;;;;;4987381;28;24508;-53
2021/08/12 10:50:58;;;;;;;4.95;4.65;;;;;;;;;;4986995;28;24509;-53
2021/08/12 10:53:23;;;;;;;4.30;4.00;;;;;;;;;;4986530;28;24536;-52
2021/08/12 10:55:48;;;;;;;4.93;4.53;;;;;;;;;;4987082;28;24513;-52
2021/08/12 10:58:25;;;;;;;4.35;4.05;;;;;;;;;;4987410;28;24411;-52
2021/08/12 11:00:56;;;;;;;4.93;4.60;;;;;;;;;;4979741;28;24441;-53
2021/08/12 11:03:33;;;;;;;4.50;4.20;;;;;;;;;;4987640;28;24468;-52
2021/08/12 11:06:19;;;;;;;5.60;5.00;;;;;;;;;;4986773;28;24804;-53
2021/08/12 11:08:50;;;;;;;4.55;4.25;;;;;;;;;;4986968;28;24428;-52
2021/08/12 11:11:15;;;;;;;5.28;4.88;;;;;;;;;;4987562;28;24428;-52
2021/08/12 11:13:41;;;;;;;4.80;4.40;;;;;;;;;;4986650;28;24425;-52
2021/08/12 11:16:06;;;;;;;4.60;4.30;;;;;;;;;;4987025;28;24959;-51
2021/08/12 11:18:50;;;;;;;4.70;4.40;;;;;;;;;;4987298;28;25034;-52
2021/08/12 11:21:31;;;;;;;4.80;4.40;;;;;;;;;;4986826;28;24469;-53
2021/08/12 11:24:31;;;;;;;4.60;4.20;;;;;;;;;;4986539;28;24431;-52
2021/08/12 11:26:57;;;;;;;5.13;4.75;;;;;;;;;;4986785;28;25250;-52
2021/08/12 11:29:27;;;;;;;5.35;4.95;;;;;;;;;;4986690;28;24421;-51
2021/08/12 11:31:53;;;;;;;5.22;4.82;;;;;;;;;;4986816;28;24500;-51
2021/08/12 11:34:28;;;;;;;5.13;4.72;;;;;;;;;;4987001;28;24529;-52
2021/08/12 11:37:14;;;;;;;5.22;4.90;;;;;;;;;;4986964;28;24475;-52
2021/08/12 11:39:46;;;;;;;4.90;4.60;;;;;;;;;;4977146;28;24413;-53
2021/08/12 11:42:23;;;;;;;5.77;5.37;;;;;;;;;;4986738;28;24691;-52
2021/08/12 11:44:50;;;;;;;5.55;5.15;;;;;;;;;;4990780;28;24495;-51
2021/08/12 11:47:15;;;;;;;5.40;5.00;;;;;;;;;;4990135;28;24433;-51
2021/08/12 11:49:45;;;;;;;6.37;5.87;;;;;;;;;;4990045;28;24776;-52
2021/08/12 11:52:10;;;;;;;5.30;4.90;;;;;;;;;;4990438;28;24952;-52
2021/08/12 11:54:35;;;;;;;5.85;5.35;;;;;;;;;;4990374;28;24503;-52
2021/08/12 11:57:01;;;;;;;6.00;5.50;;;;;;;;;;4990019;28;24956;-52
2021/08/12 11:59:26;;;;;;;5.60;5.10;;;;;;;;;;4989592;28;24507;-52
2021/08/12 12:01:52;;;;;;;5.40;5.10;;;;;;;;;;4990187;28;25053;-51
2021/08/12 12:04:18;;;;;;;6.07;5.68;;;;;;;;;;4989858;28;24425;-50
2021/08/12 12:06:52;;;;;;;6.07;5.60;;;;;;;;;;4990126;28;24496;-52
2021/08/12 12:09:27;;;;;;;5.30;4.90;;;;;;;;;;4987567;28;24416;-52
2021/08/12 12:11:53;;;;;;;5.60;5.20;;;;;;;;;;4990017;28;24428;-52
2021/08/12 12:14:40;;;;;;;6.10;5.60;;;;;;;;;;4989873;28;24520;-52
2021/08/12 12:17:05;;;;;;;5.80;5.40;;;;;;;;;;4989580;28;24760;-52
2021/08/12 12:19:30;;;;;;;5.70;5.30;;;;;;;;;;4989324;28;24686;-52
2021/08/12 12:21:55;;;;;;;5.32;4.93;;;;;;;;;;4990223;28;24693;-52
2021/08/12 12:24:20;;;;;;;5.38;4.97;;;;;;;;;;4990082;28;24507;-52
2021/08/12 12:26:46;;;;;;;6.20;5.80;;;;;;;;;;4990324;28;24764;-52
2021/08/12 12:29:12;;;;;;;5.77;5.37;;;;;;;;;;4989362;28;24433;-52
2021/08/12 12:31:37;;;;;;;6.22;5.75;;;;;;;;;;4990078;28;24401;-52
2021/08/12 12:34:02;;;;;;;5.47;5.07;;;;;;;;;;4989685;28;24423;-51
2021/08/12 12:36:31;;;;;;;5.70;5.30;;;;;;;;;;4990172;28;24394;-52
2021/08/12 12:38:57;;;;;;;5.13;4.72;;;;;;;;;;4989145;28;24479;-52
2021/08/12 12:41:22;;;;;;;5.68;5.28;;;;;;;;;;4989778;28;24943;-52
2021/08/12 12:43:48;;;;;;;5.50;5.10;;;;;;;;;;4989589;28;25150;-52
2021/08/12 12:46:28;;;;;;;6.30;5.80;;;;;;;;;;4989638;28;24393;-53
2021/08/12 12:48:53;;;;;;;6.18;5.70;;;;;;;;;;4988126;28;24463;-52
2021/08/12 12:51:23;;;;;;;6.00;5.50;;;;;;;;;;4989395;28;24882;-53
2021/08/12 12:53:48;;;;;;;5.95;5.55;;;;;;;;;;4989441;28;24444;-52
2021/08/12 12:56:21;;;;;;;5.60;5.20;;;;;;;;;;4989586;28;24409;-52
2021/08/12 12:58:47;;;;;;;6.00;5.50;;;;;;;;;;4988968;28;24973;-52
2021/08/12 13:01:18;;;;;;;6.03;5.53;;;;;;;;;;4989032;28;24421;-52
2021/08/12 13:03:44;;;;;;;5.75;5.25;;;;;;;;;;4989694;28;24492;-52
2021/08/12 13:06:11;;;;;;;6.00;5.50;;;;;;;;;;4989214;28;24452;-51
2021/08/12 13:08:39;;;;;;;5.80;5.30;;;;;;;;;;4989031;28;24718;-52
2021/08/12 13:11:11;;;;;;;6.30;5.80;;;;;;;;;;4988649;28;24417;-51
2021/08/12 13:13:37;;;;;;;6.10;5.70;;;;;;;;;;4988834;28;24444;-52
2021/08/12 13:16:06;;;;;;;5.90;5.50;;;;;;;;;;4988716;28;24923;-54
2021/08/12 13:18:50;;;;;;;5.90;5.50;;;;;;;;;;4989143;28;24428;-53
2021/08/12 13:21:29;;;;;;;5.80;5.40;;;;;;;;;;4988740;28;24981;-53
2021/08/12 13:23:55;;;;;;;5.60;5.20;;;;;;;;;;4989032;28;24423;-53
2021/08/12 13:26:27;;;;;;;6.30;5.80;;;;;;;;;;4988510;28;24488;-53
2021/08/12 13:29:13;;;;;;;5.57;5.18;;;;;;;;;;4988397;28;24604;-53
2021/08/12 13:31:40;;;;;;;5.90;5.40;;;;;;;;;;4988750;28;24578;-52
2021/08/12 13:34:06;;;;;;;6.38;5.90;;;;;;;;;;4988751;28;24832;-52
2021/08/12 13:36:31;;;;;;;6.50;5.90;;;;;;;;;;4988706;28;24955;-53
2021/08/12 13:38:56;;;;;;;6.17;5.67;;;;;;;;;;4987903;28;24963;-53
2021/08/12 13:41:21;;;;;;;6.00;5.50;;;;;;;;;;4988658;28;24428;-53
2021/08/12 13:43:47;;;;;;;6.50;6.00;;;;;;;;;;4989009;28;24397;-53
2021/08/12 13:46:12;;;;;;;6.50;6.00;;;;;;;;;;4988537;28;24417;-53
2021/08/12 13:48:37;;;;;;;6.13;5.73;;;;;;;;;;4988029;28;24420;-53
2021/08/12 13:51:02;;;;;;;6.65;6.05;;;;;;;;;;4988165;28;24474;-52
2021/08/12 13:53:27;;;;;;;6.30;5.90;;;;;;;;;;4987553;28;24475;-53
2021/08/12 13:55:52;;;;;;;5.70;5.30;;;;;;;;;;4988444;28;24772;-53
2021/08/12 13:58:17;;;;;;;6.63;6.13;;;;;;;;;;4988314;28;24963;-53
2021/08/12 14:00:42;;;;;;;6.50;6.00;;;;;;;;;;4987738;28;24401;-53
2021/08/12 14:03:08;;;;;;;5.93;5.53;;;;;;;;;;4988423;28;24400;-53
2021/08/12 14:05:33;;;;;;;6.97;6.37;;;;;;;;;;4988276;28;24863;-51
2021/08/12 14:07:58;;;;;;;6.00;5.60;;;;;;;;;;4987586;28;24413;-52
2021/08/12 14:10:23;;;;;;;7.20;6.60;;;;;;;;;;4988072;28;24401;-51
2021/08/12 14:12:48;;;;;;;6.88;6.38;;;;;;;;;;4988312;28;24488;-52
2021/08/12 14:15:13;;;;;;;6.30;5.83;;;;;;;;;;4987931;28;24943;-53
2021/08/12 14:17:39;;;;;;;6.53;6.13;;;;;;;;;;4987800;28;24516;-53
2021/08/12 14:20:04;;;;;;;6.90;6.30;;;;;;;;;;4987922;28;24939;-53
2021/08/12 14:22:32;;;;;;;6.70;6.30;;;;;;;;;;4988046;28;25210;-53
2021/08/12 14:24:57;;;;;;;7.20;6.60;;;;;;;;;;4987927;28;24397;-53
2021/08/12 14:27:22;;;;;;;6.77;6.23;;;;;;;;;;4987693;28;24500;-53
2021/08/12 14:29:47;;;;;;;6.68;6.07;;;;;;;;;;4987185;28;24409;-53
2021/08/12 14:32:13;;;;;;;6.63;6.13;;;;;;;;;;4987722;28;24400;-53
2021/08/12 14:34:38;;;;;;;8.70;7.10;;;;;;;;;;4987956;28;24997;-53